Time;durP1;ratioP1;P1;durP2;ratioP2;P2;SDS_P1;SDS_P2;PMS_P1;PMS_P2;Temp;Humidity;BMP_temperature;BMP_pressure;BME280_temperature;BME280_humidity;BME280_pressure;Samples;Min_cycle;Max_cycle;Signal;HPM_P1;HPM_P2
2022/09/29 00:01:09;;;;;;;;;;;;;;;21.83;64.38;97921.31;7312249;19;130132;-41
2022/09/29 00:03:35;;;;;;;;;;;;;;;21.86;64.92;97920.97;7311389;19;129597;-40
2022/09/29 00:06:00;;;;;;;;;;;;;;;21.87;64.78;97927.81;7314430;19;129083;-39
2022/09/29 00:08:26;;;;;;;;;;;;;;;21.89;65.02;97927.63;7313590;19;129491;-40
2022/09/29 00:10:52;;;;;;;;;;;;;;;21.89;64.16;97938.91;7314387;19;129395;-41
2022/09/29 00:13:18;;;;;;;;;;;;;;;21.85;64.91;97937.63;7310789;19;129733;-41
2022/09/29 00:15:43;;;;;;;;;;;;;;;21.83;64.86;97933.59;7314236;19;128998;-40
2022/09/29 00:18:10;;;;;;;;;;;;;;;21.86;64.58;97936.66;7314274;19;129655;-38
2022/09/29 00:20:35;;;;;;;;;;;;;;;21.87;64.86;97937.47;7308591;19;129185;-39
2022/09/29 00:23:01;;;;;;;;;;;;;;;21.86;64.33;97933.22;7311374;19;131167;-40
2022/09/29 00:25:26;;;;;;;;;;;;;;;21.85;64.56;97937.63;7313650;19;129408;-40
2022/09/29 00:27:51;;;;;;;;;;;;;;;21.85;64.31;97936.81;7313825;19;130779;-41
2022/09/29 00:30:17;;;;;;;;;;;;;;;21.83;65.05;97938.81;7313196;19;129324;-39
2022/09/29 00:32:42;;;;;;;;;;;;;;;21.83;64.87;97939.63;7310915;19;129330;-41
2022/09/29 00:35:09;;;;;;;;;;;;;;;21.82;64.46;97938.00;7313805;19;129294;-40
2022/09/29 00:37:34;;;;;;;;;;;;;;;21.83;63.98;97926.53;7312579;19;129300;-37
2022/09/29 00:40:00;;;;;;;;;;;;;;;21.83;64.26;97941.44;7312309;19;129966;-39
2022/09/29 00:42:26;;;;;;;;;;;;;;;21.76;64.22;97925.66;7311793;19;130213;-40
2022/09/29 00:45:04;;;;;;;;;;;;;;;21.82;64.81;97935.38;7313683;19;129024;-41
2022/09/29 00:47:31;;;;;;;;;;;;;;;21.80;64.61;97939.97;7312847;19;130096;-40
2022/09/29 00:50:00;;;;;;;;;;;;;;;21.87;64.35;97940.91;7312831;19;129153;-41
2022/09/29 00:52:31;;;;;;;;;;;;;;;21.85;64.55;97937.63;7311522;19;130470;-41
2022/09/29 00:54:59;;;;;;;;;;;;;;;21.83;64.90;97933.59;7312283;19;128933;-41
2022/09/29 00:57:30;;;;;;;;;;;;;;;21.85;64.81;97931.59;7313094;19;129665;-40
2022/09/29 01:00:01;;;;;;;;;;;;;;;21.89;64.30;97928.44;7311097;19;129541;-41
2022/09/29 01:02:29;;;;;;;;;;;;;;;21.90;64.77;97930.06;7311129;19;131340;-41
2022/09/29 01:04:54;;;;;;;;;;;;;;;21.86;64.59;97923.59;7313026;19;129293;-40
2022/09/29 01:07:21;;;;;;;;;;;;;;;21.88;64.24;97932.03;7312656;19;129080;-38
2022/09/29 01:09:46;;;;;;;;;;;;;;;21.83;64.25;97930.97;7312604;19;131417;-41
2022/09/29 01:12:12;;;;;;;;;;;;;;;21.84;64.92;97929.97;7311030;19;129300;-38
2022/09/29 01:14:38;;;;;;;;;;;;;;;21.85;64.78;97928.97;7312146;19;128931;-41
2022/09/29 01:17:04;;;;;;;;;;;;;;;21.84;64.11;97930.78;7311008;19;130213;-40
2022/09/29 01:19:29;;;;;;;;;;;;;;;21.84;64.16;97941.25;7310301;19;130322;-40
2022/09/29 01:22:12;;;;;;;;;;;;;;;21.85;63.97;97939.44;7307280;19;147342;-39
2022/09/29 01:24:56;;;;;;;;;;;;;;;21.86;64.85;97939.28;7312043;19;128986;-40
2022/09/29 01:27:49;;;;;;;;;;;;;;;21.83;64.79;97942.22;7311017;19;129104;-41
2022/09/29 01:30:21;;;;;;;;;;;;;;;21.84;64.99;97946.50;7312398;19;131054;-40
2022/09/29 01:33:05;;;;;;;;;;;;;;;21.85;64.08;97950.72;7315274;19;129309;-41
2022/09/29 01:35:39;;;;;;;;;;;;;;;21.84;64.22;97954.34;7318136;19;128946;-39
2022/09/29 01:38:10;;;;;;;;;;;;;;;21.85;64.59;97953.34;7318684;19;129239;-39
2022/09/29 01:41:08;;;;;;;;;;;;;;;21.84;64.81;97945.66;7317981;19;129838;-41
2022/09/29 01:43:39;;;;;;;;;;;;;;;21.84;64.30;97949.09;7313244;19;129259;-39
2022/09/29 01:46:07;;;;;;;;;;;;;;;21.86;64.54;97949.75;7318617;19;129377;-40
2022/09/29 01:48:35;;;;;;;;;;;;;;;21.84;64.62;97950.91;7319280;19;129384;-40
2022/09/29 01:51:04;;;;;;;;;;;;;;;21.76;64.35;97941.34;7316927;19;129859;-39
2022/09/29 01:53:33;;;;;;;;;;;;;;;21.87;64.28;97947.91;7314647;19;129607;-38
2022/09/29 01:56:02;;;;;;;;;;;;;;;21.84;64.61;97951.72;7316000;19;129372;-41
2022/09/29 01:58:41;;;;;;;;;;;;;;;21.74;64.59;97934.63;7316865;19;129142;-39
2022/09/29 02:01:09;;;;;;;;;;;;;;;21.82;64.25;97953.69;7315722;19;129094;-41
2022/09/29 02:03:37;;;;;;;;;;;;;;;21.84;64.96;97954.34;7314935;19;129743;-40
2022/09/29 02:06:09;;;;;;;;;;;;;;;21.83;64.22;97954.53;7315436;19;128853;-41
2022/09/29 02:08:41;;;;;;;;;;;;;;;21.82;65.07;97958.94;7317901;19;129229;-41
2022/09/29 02:11:11;;;;;;;;;;;;;;;21.83;64.97;97955.31;7317143;19;130166;-40
2022/09/29 02:13:44;;;;;;;;;;;;;;;21.78;64.61;97949.03;7314306;19;129851;-39
2022/09/29 02:16:14;;;;;;;;;;;;;;;21.74;64.14;97945.91;7317180;19;129340;-41
2022/09/29 02:18:43;;;;;;;;;;;;;;;21.83;64.37;97968.41;7317268;19;130064;-39
2022/09/29 02:21:08;;;;;;;;;;;;;;;21.87;64.32;97964.44;7315267;19;129562;-40
2022/09/29 02:23:33;;;;;;;;;;;;;;;21.86;64.19;97965.44;7314417;19;129353;-38
2022/09/29 02:25:59;;;;;;;;;;;;;;;21.87;64.85;97969.66;7317520;19;129056;-39
2022/09/29 02:28:24;;;;;;;;;;;;;;;21.84;64.01;97972.66;7317423;19;129032;-38
2022/09/29 02:30:50;;;;;;;;;;;;;;;21.85;64.88;97971.66;7316989;19;129153;-41
2022/09/29 02:33:17;;;;;;;;;;;;;;;21.76;64.53;97958.81;7315150;19;130439;-41
2022/09/29 02:35:50;;;;;;;;;;;;;;;21.84;64.38;97971.84;7316545;19;129430;-41
2022/09/29 02:38:24;;;;;;;;;;;;;;;21.86;64.38;97975.91;7316215;19;129131;-41
2022/09/29 02:40:59;;;;;;;;;;;;;;;21.84;64.24;97980.50;7315238;19;130734;-40
2022/09/29 02:43:27;;;;;;;;;;;;;;;21.83;64.37;97975.44;7313211;19;129701;-38
2022/09/29 02:45:53;;;;;;;;;;;;;;;21.83;64.92;97981.47;7317083;19;129018;-39
2022/09/29 02:48:18;;;;;;;;;;;;;;;21.82;65.03;97974.63;7317917;19;129114;-41
2022/09/29 02:50:55;;;;;;;;;;;;;;;21.74;64.29;97961.63;7315354;19;129668;-40
2022/09/29 02:53:26;;;;;;;;;;;;;;;21.83;64.58;97975.44;7314305;19;130216;-37
2022/09/29 02:56:03;;;;;;;;;;;;;;;21.83;64.55;97978.06;7316580;19;129711;-41
2022/09/29 02:58:36;;;;;;;;;;;;;;;21.80;64.41;97976.59;7315874;19;129373;-38
2022/09/29 03:01:02;;;;;;;;;;;;;;;21.83;64.46;97976.25;7315962;19;130519;-39
2022/09/29 03:03:27;;;;;;;;;;;;;;;21.82;64.31;97985.09;7313780;19;129415;-37
2022/09/29 03:05:52;;;;;;;;;;;;;;;21.82;64.33;97979.88;7316851;19;129006;-39
2022/09/29 03:08:17;;;;;;;;;;;;;;;21.81;64.78;97980.88;7316305;19;129032;-39
2022/09/29 03:10:42;;;;;;;;;;;;;;;21.81;64.75;97977.44;7315322;19;130234;-40
2022/09/29 03:13:08;;;;;;;;;;;;;;;21.84;64.90;97980.50;7314053;19;129547;-40
2022/09/29 03:15:33;;;;;;;;;;;;;;;21.84;64.54;97977.06;7315723;19;130641;-40
2022/09/29 03:17:58;;;;;;;;;;;;;;;21.84;64.27;97972.66;7316530;19;129450;-41
2022/09/29 03:20:25;;;;;;;;;;;;;;;21.84;64.48;97983.13;7314546;19;130154;-40
2022/09/29 03:22:54;;;;;;;;;;;;;;;21.80;64.59;97976.59;7314048;19;131026;-40
2022/09/29 03:25:19;;;;;;;;;;;;;;;21.84;64.73;97977.06;7314787;19;128949;-41
2022/09/29 03:27:45;;;;;;;;;;;;;;;21.82;64.06;97974.63;7315544;19;128994;-39
2022/09/29 03:30:11;;;;;;;;;;;;;;;21.80;64.86;97970.56;7314207;19;129049;-41
2022/09/29 03:32:36;;;;;;;;;;;;;;;21.80;64.76;97970.56;7313081;19;130299;-39
2022/09/29 03:35:01;;;;;;;;;;;;;;;21.82;64.38;97974.63;7315034;19;129860;-41
2022/09/29 03:37:27;;;;;;;;;;;;;;;21.82;64.50;97979.88;7315081;19;128935;-41
2022/09/29 03:39:52;;;;;;;;;;;;;;;21.72;64.21;97966.22;7314099;19;130041;-37
2022/09/29 03:42:17;;;;;;;;;;;;;;;21.80;65.10;97997.53;7313176;19;129965;-39
2022/09/29 03:44:42;;;;;;;;;;;;;;;21.82;64.90;97982.47;7312375;19;129370;-40
2022/09/29 03:47:08;;;;;;;;;;;;;;;21.71;64.50;97982.09;7314309;19;129102;-39
2022/09/29 03:49:34;;;;;;;;;;;;;;;21.79;64.87;97998.53;7314927;19;129528;-41
2022/09/29 03:52:00;;;;;;;;;;;;;;;21.82;64.63;97999.97;7313551;19;130467;-40
2022/09/29 03:54:26;;;;;;;;;;;;;;;21.75;64.93;97992.00;7313352;19;129948;-41
2022/09/29 03:56:52;;;;;;;;;;;;;;;21.80;64.20;97999.34;7312948;19;129728;-40
2022/09/29 03:59:17;;;;;;;;;;;;;;;21.81;64.50;97993.94;7313281;19;129040;-40
2022/09/29 04:01:42;;;;;;;;;;;;;;;21.82;64.23;97997.34;7311927;19;129616;-41
2022/09/29 04:04:09;;;;;;;;;;;;;;;21.83;64.50;97993.75;7312083;19;128996;-41
2022/09/29 04:06:35;;;;;;;;;;;;;;;21.71;64.53;97977.66;7311687;19;131831;-42
2022/09/29 04:09:00;;;;;;;;;;;;;;;21.81;64.31;97993.13;7310812;19;131387;-40
2022/09/29 04:11:26;;;;;;;;;;;;;;;21.80;64.44;97992.31;7313362;19;129521;-41
2022/09/29 04:13:51;;;;;;;;;;;;;;;21.73;64.90;97980.91;7310199;19;130790;-40
2022/09/29 04:16:17;;;;;;;;;;;;;;;21.83;64.23;97991.94;7313917;19;129266;-41
2022/09/29 04:18:42;;;;;;;;;;;;;;;21.81;65.16;97999.19;7312902;19;129654;-40
2022/09/29 04:21:07;;;;;;;;;;;;;;;21.81;64.63;97996.56;7311538;19;130948;-39
2022/09/29 04:23:33;;;;;;;;;;;;;;;21.83;64.14;97993.75;7311968;19;129127;-42
2022/09/29 04:26:00;;;;;;;;;;;;;;;21.82;64.93;97998.19;7312430;19;130980;-42
2022/09/29 04:28:26;;;;;;;;;;;;;;;21.78;64.97;97999.50;7313308;19;130147;-40
2022/09/29 04:30:51;;;;;;;;;;;;;;;21.81;64.59;97995.75;7312913;19;129190;-38
2022/09/29 04:33:17;;;;;;;;;;;;;;;21.81;64.48;97993.94;7311293;19;130990;-40
2022/09/29 04:35:42;;;;;;;;;;;;;;;21.82;64.15;98000.78;7312902;19;129016;-40
2022/09/29 04:38:07;;;;;;;;;;;;;;;21.80;64.22;97997.53;7312053;19;129559;-38
2022/09/29 04:40:34;;;;;;;;;;;;;;;21.80;64.85;97997.53;7309297;19;130295;-41
2022/09/29 04:42:59;;;;;;;;;;;;;;;21.81;64.67;98007.03;7307259;19;129227;-40
2022/09/29 04:45:24;;;;;;;;;;;;;;;21.80;64.83;98008.00;7311499;19;129839;-41
2022/09/29 04:47:49;;;;;;;;;;;;;;;21.78;63.94;98020.44;7312005;19;129262;-41
2022/09/29 04:50:15;;;;;;;;;;;;;;;21.76;64.90;98011.97;7311882;19;129385;-41
2022/09/29 04:52:42;;;;;;;;;;;;;;;21.79;64.15;98018.66;7311627;19;129211;-38
2022/09/29 04:55:10;;;;;;;;;;;;;;;21.80;64.24;98018.47;7309471;19;129584;-38
2022/09/29 04:57:35;;;;;;;;;;;;;;;21.75;64.96;98005.06;7313103;19;130382;-38
2022/09/29 05:00:00;;;;;;;;;;;;;;;21.82;64.98;98015.66;7312392;19;130507;-38
2022/09/29 05:02:25;;;;;;;;;;;;;;;21.72;64.53;98005.44;7311704;19;129041;-40
2022/09/29 05:04:51;;;;;;;;;;;;;;;21.77;64.17;98024.06;7311034;19;131031;-40
2022/09/29 05:07:16;;;;;;;;;;;;;;;21.80;64.32;98023.69;7316609;19;129541;-41
2022/09/29 05:09:41;;;;;;;;;;;;;;;21.70;64.72;98010.03;7316719;19;129940;-38
2022/09/29 05:12:06;;;;;;;;;;;;;;;21.81;64.63;98025.34;7317296;19;131301;-40
2022/09/29 05:14:32;;;;;;;;;;;;;;;21.78;64.51;98025.66;7318088;19;129944;-41
2022/09/29 05:16:57;;;;;;;;;;;;;;;21.80;64.22;98031.53;7317181;19;130374;-40
2022/09/29 05:19:23;;;;;;;;;;;;;;;21.82;64.99;98026.13;7316563;19;129259;-40
2022/09/29 05:21:48;;;;;;;;;;;;;;;21.77;64.68;98024.06;7315469;19;129693;-40
2022/09/29 05:24:13;;;;;;;;;;;;;;;21.82;64.89;98020.91;7315613;19;130713;-39
2022/09/29 05:26:39;;;;;;;;;;;;;;;21.83;64.74;98022.53;7318175;19;129846;-41
2022/09/29 05:29:04;;;;;;;;;;;;;;;21.81;64.83;98027.97;7319639;19;130310;-40
2022/09/29 05:31:29;;;;;;;;;;;;;;;21.81;64.66;98024.53;7317921;19;128689;-39
2022/09/29 05:33:56;;;;;;;;;;;;;;;21.82;64.49;98020.91;7314057;19;128832;-38
2022/09/29 05:36:21;;;;;;;;;;;;;;;21.82;64.47;98013.88;7317521;19;129901;-41
2022/09/29 05:38:47;;;;;;;;;;;;;;;21.81;64.59;98020.09;7318394;19;129101;-40
2022/09/29 05:41:15;;;;;;;;;;;;;;;21.80;64.31;98028.94;7316498;19;129213;-39
2022/09/29 05:43:40;;;;;;;;;;;;;;;21.82;64.29;98026.13;7316547;19;128877;-39
2022/09/29 05:46:06;;;;;;;;;;;;;;;21.80;64.48;98031.53;7318336;19;129364;-38
2022/09/29 05:48:32;;;;;;;;;;;;;;;21.81;64.37;98033.19;7316783;19;130520;-40
2022/09/29 05:50:57;;;;;;;;;;;;;;;21.78;64.67;98023.06;7319854;19;129116;-41
2022/09/29 05:53:23;;;;;;;;;;;;;;;21.83;64.92;98031.19;7317195;19;129836;-41
2022/09/29 05:55:48;;;;;;;;;;;;;;;21.79;64.62;98031.72;7318326;19;131301;-38
2022/09/29 05:58:13;;;;;;;;;;;;;;;21.77;64.25;98029.28;7317411;19;129319;-39
2022/09/29 06:00:39;;;;;;;;;;;;;;;21.79;64.51;98032.56;7317361;19;129321;-41
2022/09/29 06:03:04;;;;;;;;;;;;;;;21.80;64.82;98042.00;7315316;19;129457;-39
2022/09/29 06:05:30;;;;;;;;;;;;;;;21.76;64.88;98030.28;7316892;19;129068;-40
2022/09/29 06:07:55;;;;;;;;;;;;;;;21.79;65.02;98035.16;7318248;19;130353;-40
2022/09/29 06:10:20;;;;;;;;;;;;;;;21.78;64.64;98041.38;7315982;19;129014;-37
2022/09/29 06:12:46;;;;;;;;;;;;;;;21.81;64.25;98038.44;7316794;19;128884;-41
2022/09/29 06:15:11;;;;;;;;;;;;;;;21.83;64.87;98044.25;7316727;19;129379;-40
2022/09/29 06:17:37;;;;;;;;;;;;;;;21.77;64.16;98031.91;7313997;19;129723;-38
2022/09/29 06:20:03;;;;;;;;;;;;;;;21.83;64.91;98041.66;7317826;19;128888;-41
2022/09/29 06:22:29;;;;;;;;;;;;;;;21.81;64.93;98043.66;7314181;19;130763;-38
2022/09/29 06:24:54;;;;;;;;;;;;;;;21.75;64.26;98035.69;7316520;19;129493;-41
2022/09/29 06:27:19;;;;;;;;;;;;;;;21.78;64.67;98051.84;7316846;19;130502;-39
2022/09/29 06:29:45;;;;;;;;;;;;;;;21.79;64.33;98048.25;7316224;19;129645;-41
2022/09/29 06:32:10;;;;;;;;;;;;;;;21.82;64.41;98050.50;7317027;19;129171;-40
2022/09/29 06:37:33;;;;;;;;;;;;;;;21.79;64.50;98042.19;7315580;19;130743;-39
2022/09/29 06:37:36;;;;;;;;;;;;;;;21.81;64.78;98041.03;7315568;19;130885;-40
2022/09/29 06:40:07;;;;;;;;;;;;;;;21.81;64.64;98041.03;7316980;19;129196;-37
2022/09/29 06:42:33;;;;;;;;;;;;;;;21.82;64.48;98039.22;7315976;19;129249;-40
2022/09/29 06:44:58;;;;;;;;;;;;;;;21.70;64.45;98025.72;7314806;19;130183;-41
2022/09/29 06:47:24;;;;;;;;;;;;;;;21.78;64.51;98045.81;7315595;19;129242;-37
2022/09/29 06:49:49;;;;;;;;;;;;;;;21.80;64.71;98038.56;7315485;19;129584;-39
2022/09/29 06:52:15;;;;;;;;;;;;;;;21.79;64.71;98040.41;7311407;19;129245;-40
2022/09/29 06:54:40;;;;;;;;;;;;;;;21.77;64.52;98044.16;7315707;19;129428;-37
2022/09/29 06:57:05;;;;;;;;;;;;;;;21.80;65.02;98039.41;7317329;19;129858;-40
2022/09/29 06:59:30;;;;;;;;;;;;;;;21.81;64.67;98038.44;7317186;19;129294;-41
2022/09/29 07:01:56;;;;;;;;;;;;;;;21.84;64.64;98034.63;7313426;19;129809;-38
2022/09/29 07:04:21;;;;;;;;;;;;;;;21.79;64.37;98036.97;7316031;19;129173;-40
2022/09/29 07:06:47;;;;;;;;;;;;;;;21.81;64.99;98040.22;7315234;19;130862;-39
2022/09/29 07:09:14;;;;;;;;;;;;;;;21.83;64.53;98046.88;7315621;19;128984;-37
2022/09/29 07:11:41;;;;;;;;;;;;;;;21.82;65.04;98047.06;7316202;19;130272;-41
2022/09/29 07:14:06;;;;;;;;;;;;;;;21.78;64.42;98038.75;7314205;19;129715;-37
2022/09/29 07:16:31;;;;;;;;;;;;;;;21.77;64.50;98042.38;7316397;19;129605;-40
2022/09/29 07:18:56;;;;;;;;;;;;;;;21.83;65.08;98048.69;7315731;19;129596;-39
2022/09/29 07:21:22;;;;;;;;;;;;;;;21.78;64.36;98046.59;7314503;19;129021;-41
2022/09/29 07:23:47;;;;;;;;;;;;;;;21.81;64.50;98048.88;7311632;19;132707;-41
2022/09/29 07:26:13;;;;;;;;;;;;;;;21.80;64.32;98055.09;7315391;19;129189;-41
2022/09/29 07:28:38;;;;;;;;;;;;;;;21.78;64.71;98051.84;7314869;19;129654;-41
2022/09/29 07:31:08;;;;;;;;;;;;;;;21.79;64.26;98058.72;7315772;19;129255;-40
2022/09/29 07:33:34;;;;;;;;;;;;;;;21.78;64.93;98059.69;7311606;19;131492;-40
2022/09/29 07:35:59;;;;;;;;;;;;;;;21.78;64.52;98062.28;7314389;19;129498;-40
2022/09/29 07:38:25;;;;;;;;;;;;;;;21.80;64.11;98062.94;7314923;19;128916;-41
2022/09/29 07:40:50;;;;;;;;;;;;;;;21.83;64.70;98065.19;7314489;19;128780;-41
2022/09/29 07:43:16;;;;;;;;;;;;;;;21.82;64.76;98065.38;7310107;19;133105;-40
2022/09/29 07:45:47;;;;;;;;;;;;;;;21.75;64.23;98064.44;7314979;19;129912;-41
2022/09/29 07:48:13;;;;;;;;;;;;;;;21.79;65.04;98066.56;7316924;19;129643;-42
2022/09/29 07:50:38;;;;;;;;;;;;;;;21.80;64.53;98073.41;7316459;19;128883;-39
2022/09/29 07:53:03;;;;;;;;;;;;;;;21.75;64.80;98070.47;7313294;19;129220;-40
2022/09/29 07:55:28;;;;;;;;;;;;;;;21.78;65.11;98075.38;7312544;19;129209;-41
2022/09/29 07:57:55;;;;;;;;;;;;;;;21.78;64.92;98078.00;7315259;19;130186;-40
2022/09/29 08:00:20;;;;;;;;;;;;;;;21.79;64.81;98079.63;7314723;19;129082;-40
2022/09/29 08:02:46;;;;;;;;;;;;;;;21.78;64.78;98077.19;7313169;19;129450;-40
2022/09/29 08:05:11;;;;;;;;;;;;;;;21.83;64.46;98082.72;7314532;19;129291;-38
2022/09/29 08:07:36;;;;;;;;;;;;;;;21.82;64.99;98079.28;7314660;19;129019;-39
2022/09/29 08:10:01;;;;;;;;;;;;;;;21.81;64.95;98080.28;7316170;19;129281;-41
2022/09/29 08:12:27;;;;;;;;;;;;;;;21.81;64.72;98082.91;7312502;19;130119;-40
2022/09/29 08:14:52;;;;;;;;;;;;;;;21.79;64.78;98090.09;7313535;19;129888;-39
2022/09/29 08:17:17;;;;;;;;;;;;;;;21.82;64.77;98086.31;7314939;19;128707;-41
2022/09/29 08:19:42;;;;;;;;;;;;;;;21.79;64.96;98086.66;7314341;19;129093;-41
2022/09/29 08:22:08;;;;;;;;;;;;;;;21.78;64.59;98088.47;7312686;19;129290;-38
2022/09/29 08:24:35;;;;;;;;;;;;;;;21.80;64.36;98091.72;7312623;19;129199;-41
2022/09/29 08:27:01;;;;;;;;;;;;;;;21.79;64.90;98090.09;7314225;19;129113;-38
2022/09/29 08:29:26;;;;;;;;;;;;;;;21.79;64.78;98094.50;7314082;19;128989;-39
2022/09/29 08:31:52;;;;;;;;;;;;;;;21.77;64.66;98089.47;7313553;19;129167;-40
2022/09/29 08:34:18;;;;;;;;;;;;;;;21.77;64.38;98097.31;7310266;19;129842;-41
2022/09/29 08:36:43;;;;;;;;;;;;;;;21.80;64.25;98099.56;7313541;19;129219;-41
2022/09/29 08:39:09;;;;;;;;;;;;;;;21.81;64.47;98103.81;7313765;19;128891;-38
2022/09/29 08:41:48;;;;;;;;;;;;;;;21.78;64.39;98104.16;7308031;19;129615;-41
2022/09/29 08:44:13;;;;;;;;;;;;;;;21.78;64.53;98109.38;7312084;19;130932;-40
2022/09/29 08:46:43;;;;;;;;;;;;;;;21.78;65.13;98105.97;7314499;19;129333;-41
2022/09/29 08:49:28;;;;;;;;;;;;;;;21.70;64.39;98091.13;7314903;19;128932;-41
2022/09/29 08:51:56;;;;;;;;;;;;;;;21.76;64.33;98105.31;7312387;19;129878;-40
2022/09/29 08:54:41;;;;;;;;;;;;;;;21.72;65.05;98106.63;7311801;19;129367;-39
2022/09/29 08:57:15;;;;;;;;;;;;;;;21.74;64.96;98112.50;7311258;19;129060;-41
2022/09/29 08:59:40;;;;;;;;;;;;;;;21.81;64.73;98111.69;7311963;19;128903;-40
2022/09/29 09:02:28;;;;;;;;;;;;;;;21.78;64.97;98114.63;7310415;19;129320;-40
2022/09/29 09:05:12;;;;;;;;;;;;;;;21.79;64.63;98124.13;7312661;19;132094;-40
2022/09/29 09:07:46;;;;;;;;;;;;;;;21.80;64.94;98117.88;7312956;19;128954;-39
2022/09/29 09:10:30;;;;;;;;;;;;;;;21.75;64.79;98122.78;7313247;19;129702;-39
2022/09/29 09:13:01;;;;;;;;;;;;;;;21.74;64.57;98126.41;7311560;19;130920;-37
2022/09/29 09:15:29;;;;;;;;;;;;;;;21.79;64.79;98120.66;7312423;19;131100;-41
2022/09/29 09:18:13;;;;;;;;;;;;;;;21.78;65.03;98132.94;7312580;19;128990;-40
2022/09/29 09:20:57;;;;;;;;;;;;;;;21.72;64.37;98120.53;7311777;19;129204;-40
2022/09/29 09:23:31;;;;;;;;;;;;;;;21.77;64.46;98128.69;7310994;19;130150;-40
2022/09/29 09:25:58;;;;;;;;;;;;;;;21.77;64.96;98125.25;7312077;19;129145;-40
2022/09/29 09:28:26;;;;;;;;;;;;;;;21.76;64.47;98116.63;7312782;19;128799;-39
2022/09/29 09:30:52;;;;;;;;;;;;;;;21.75;65.05;98114.94;7312040;19;130339;-39
2022/09/29 09:33:23;;;;;;;;;;;;;;;21.77;64.61;98118.22;7311603;19;130490;-41
2022/09/29 09:35:50;;;;;;;;;;;;;;;21.78;64.44;98119.06;7311991;19;129173;-38
2022/09/29 09:38:19;;;;;;;;;;;;;;;21.78;64.02;98119.84;7313450;19;129062;-41
2022/09/29 09:40:47;;;;;;;;;;;;;;;21.73;64.34;98113.50;7310886;19;129095;-40
2022/09/29 09:43:19;;;;;;;;;;;;;;;21.73;64.36;98121.34;7309763;19;129604;-39
2022/09/29 09:45:49;;;;;;;;;;;;;;;21.77;64.71;98120.84;7312653;19;130381;-40
2022/09/29 09:48:25;;;;;;;;;;;;;;;21.77;64.89;98117.41;7310219;19;130490;-41
2022/09/29 09:50:50;;;;;;;;;;;;;;;21.77;64.52;98114.78;7310371;19;129046;-41
2022/09/29 09:53:26;;;;;;;;;;;;;;;21.75;64.40;98125.41;7314407;19;130248;-40
2022/09/29 09:55:57;;;;;;;;;;;;;;;21.76;64.56;98123.63;7318648;19;130432;-39
2022/09/29 09:58:46;;;;;;;;;;;;;;;21.75;64.46;98124.63;7318758;19;130097;-41
2022/09/29 10:01:11;;;;;;;;;;;;;;;21.66;64.78;98115.19;7316996;19;129256;-38
2022/09/29 10:03:37;;;;;;;;;;;;;;;21.78;65.02;98127.69;7315501;19;129472;-40
2022/09/29 10:06:05;;;;;;;;;;;;;;;21.74;64.51;98129.03;7317346;19;129357;-41
2022/09/29 10:08:41;;;;;;;;;;;;;;;21.76;65.16;98128.84;7317241;19;129298;-40
2022/09/29 10:11:21;;;;;;;;;;;;;;;21.78;64.93;98122.47;7316672;19;128899;-39
2022/09/29 10:13:47;;;;;;;;;;;;;;;21.73;64.34;98127.38;7314660;19;130270;-41
2022/09/29 10:16:15;;;;;;;;;;;;;;;21.65;65.11;98114.38;7317915;19;129700;-41
2022/09/29 10:18:47;;;;;;;;;;;;;;;21.73;64.56;98130.00;7318997;19;129045;-39
2022/09/29 10:21:25;;;;;;;;;;;;;;;21.64;65.25;98118.00;7315160;19;129554;-40
2022/09/29 10:23:51;;;;;;;;;;;;;;;21.70;64.39;98122.50;7315199;19;129168;-38
2022/09/29 10:26:24;;;;;;;;;;;;;;;21.74;65.09;98136.06;7316324;19;131002;-41
2022/09/29 10:28:51;;;;;;;;;;;;;;;21.77;65.30;98140.97;7317616;19;129224;-41
2022/09/29 10:31:19;;;;;;;;;;;;;;;21.74;64.65;98142.09;7317892;19;129497;-40
2022/09/29 10:33:46;;;;;;;;;;;;;;;21.77;64.96;98141.78;7314696;19;129607;-41
2022/09/29 10:36:12;;;;;;;;;;;;;;;21.73;64.94;98137.84;7316367;19;129179;-41
2022/09/29 10:38:38;;;;;;;;;;;;;;;21.78;64.94;98143.38;7316027;19;128847;-38
2022/09/29 10:41:07;;;;;;;;;;;;;;;21.78;65.10;98140.78;7316915;19;128858;-39
2022/09/29 10:43:38;;;;;;;;;;;;;;;21.76;64.44;98148.00;7314534;19;130126;-40
2022/09/29 10:46:04;;;;;;;;;;;;;;;21.74;64.37;98136.88;7317291;19;129323;-41
2022/09/29 10:48:29;;;;;;;;;;;;;;;21.72;65.08;98141.47;7316763;19;129265;-41
2022/09/29 10:50:54;;;;;;;;;;;;;;;21.62;64.37;98127.81;7316447;19;130231;-40
2022/09/29 10:53:22;;;;;;;;;;;;;;;21.77;64.58;98139.16;7314293;19;130061;-41
2022/09/29 10:55:50;;;;;;;;;;;;;;;21.76;64.86;98142.78;7317053;19;129749;-39
2022/09/29 10:58:22;;;;;;;;;;;;;;;21.76;64.47;98147.16;7315073;19;131530;-39
2022/09/29 11:00:47;;;;;;;;;;;;;;;21.75;64.37;98146.34;7314630;19;129441;-40
2022/09/29 11:03:15;;;;;;;;;;;;;;;21.74;65.12;98149.94;7312214;19;129443;-41
2022/09/29 11:05:49;;;;;;;;;;;;;;;21.74;64.70;98149.13;7315075;19;130914;-42
2022/09/29 11:08:14;;;;;;;;;;;;;;;21.74;65.11;98149.94;7316846;19;129222;-41
2022/09/29 11:10:40;;;;;;;;;;;;;;;21.77;65.26;98157.47;7316613;19;130299;-40
2022/09/29 11:13:23;;;;;;;;;;;;;;;21.72;65.00;98151.91;7311585;19;129120;-34
2022/09/29 11:15:49;;;;;;;;;;;;;;;21.75;65.08;98156.00;7314853;19;129381;-42
2022/09/29 11:18:20;;;;;;;;;;;;;;;21.75;64.75;98156.78;7315414;19;129340;-41
2022/09/29 11:20:48;;;;;;;;;;;;;;;21.78;64.94;98151.25;7315634;19;129582;-42
2022/09/29 11:23:37;;;;;;;;;;;;;;;21.74;64.75;98147.34;7312784;19;129535;-41
2022/09/29 11:26:04;;;;;;;;;;;;;;;21.75;64.51;98148.94;7315725;19;129310;-41
2022/09/29 11:28:29;;;;;;;;;;;;;;;21.79;64.62;98152.88;7316260;19;128750;-38
2022/09/29 11:30:54;;;;;;;;;;;;;;;21.73;64.75;98153.53;7316103;19;128905;-41
2022/09/29 11:33:38;;;;;;;;;;;;;;;21.73;64.94;98152.75;7313233;19;130355;-40
2022/09/29 11:36:13;;;;;;;;;;;;;;;21.70;64.75;98147.88;7313531;19;129639;-39
2022/09/29 11:38:47;;;;;;;;;;;;;;;21.74;65.07;98151.75;7313828;19;129171;-40
2022/09/29 11:41:23;;;;;;;;;;;;;;;21.75;64.83;98151.56;7315330;19;129312;-39
2022/09/29 11:43:53;;;;;;;;;;;;;;;21.76;64.62;98148.00;7312759;19;129527;-41
2022/09/29 11:46:43;;;;;;;;;;;;;;;21.78;64.44;98151.25;7314103;19;129399;-40
2022/09/29 11:49:11;;;;;;;;;;;;;;;21.73;64.59;98160.59;7314349;19;129252;-38
2022/09/29 11:51:55;;;;;;;;;;;;;;;21.75;64.63;98156.00;7316129;19;128956;-38
2022/09/29 11:54:21;;;;;;;;;;;;;;;21.73;64.95;98155.34;7315916;19;129805;-42
2022/09/29 11:56:49;;;;;;;;;;;;;;;21.64;65.00;98138.91;7316319;19;129247;-40
2022/09/29 11:59:27;;;;;;;;;;;;;;;21.70;64.84;98158.34;7316216;19;129370;-42
2022/09/29 12:01:55;;;;;;;;;;;;;;;21.71;64.44;98163.38;7313193;19;131089;-39
2022/09/29 12:04:26;;;;;;;;;;;;;;;21.72;64.72;98162.38;7313831;19;129936;-39
2022/09/29 12:07:07;;;;;;;;;;;;;;;21.75;64.75;98159.41;7314835;19;129523;-42
2022/09/29 12:09:43;;;;;;;;;;;;;;;21.72;65.03;98162.38;7311455;19;129199;-39
2022/09/29 12:12:14;;;;;;;;;;;;;;;21.74;65.24;98159.59;7312715;19;128783;-41
2022/09/29 12:14:52;;;;;;;;;;;;;;;21.69;65.16;98157.50;7313179;19;129463;-40
2022/09/29 12:17:17;;;;;;;;;;;;;;;21.75;65.00;98156.78;7310908;19;129621;-39
2022/09/29 12:19:44;;;;;;;;;;;;;;;21.64;64.32;98144.13;7313361;19;129475;-42
2022/09/29 12:22:13;;;;;;;;;;;;;;;21.72;64.95;98161.56;7312590;19;129019;-40
2022/09/29 12:24:41;;;;;;;;;;;;;;;21.69;65.18;98167.97;7313077;19;129413;-41
2022/09/29 12:27:27;;;;;;;;;;;;;;;21.73;64.92;98164.00;7314116;19;129230;-41
2022/09/29 12:29:56;;;;;;;;;;;;;;;21.71;64.96;98158.16;7314147;19;128988;-40
2022/09/29 12:32:28;;;;;;;;;;;;;;;21.70;64.45;98164.34;7313306;19;129129;-37
2022/09/29 12:35:13;;;;;;;;;;;;;;;21.74;65.17;98160.41;7313701;19;130227;-41
2022/09/29 12:37:58;;;;;;;;;;;;;;;21.73;64.47;98158.78;7313712;19;129366;-41
2022/09/29 12:40:37;;;;;;;;;;;;;;;21.74;64.45;98160.41;7310687;19;129233;-37
2022/09/29 12:43:11;;;;;;;;;;;;;;;21.73;65.08;98157.97;7310008;19;129148;-41